Cambridge, Canada
Current Conditions -  °F | °C
As of 3:40 PM on Tuesday 25 Nov 2014 (Local Time) from CYKF Reporting Station
Light Snow Light Snow  
Wind Chill: 19°   Ceiling: 2100
Heat Index: 32°   Visibility: 9mi
Dew Point: 25°   Wind: 22mph
Humidity: 75%   Direction: 240°WSW
Pressure: 29.97"   Gusts: 31mph
Location:  43.38°N, 80.32°W
Report Text: CYKF 252040Z AUTO 24019G27KT 9SM -SN OVC021 M00/M04 A2997 RMK SLP162
Loading
Personal Weather Stations






























Interactive Weather Map New forecast layout! Learn more

10-Day Weather Forecast

Advertisements
Track Severe Weather on mobile